»·PEaware :: N83364 KOAK-KSNA

N83364 :: KOAK-KSNA

FLIGHT INFORMATION

Flight Status: Arrived
Operator: Privately registered:
United States
More flights under this callsign
Pilot: Bill F. (18685)
Aircraft: PIPER PA-28R-201 ARROW
(P28R)
More flights by this aircraft type
Origin: KOAK Metro Oakland Intl
United States
Destination: KSNA John Wayne-Orange Co
United States
More flights between these airports :: More routes between these airports
Route: COASTAL
File this flight plan on PilotEdge
Remarks:
Altitude:
(Current/Filed)
5,500ft
Speed:
(Current/Filed)
0kts
Departed: 20-Apr-21 05:07 PM
Arrived: 20-Apr-21 07:38 PM
Distance/Time
Traveled:
322nm/2:31
Distance/Time
To Go:
Arrived

Flight Plot

Page will automatically refresh every two minutes.

Flight plan parsing failed; only flown route is shown


Map Options




Map Legend


Flown Route
Filed Route
Departure Airport
Arrival Airport
Navaid (VOR, NDB)
Fix

Horizontal Profiles

Position Reports

Time Latitude Longitude Heading Altitude Ground
Speed
20-Apr-21 16:56 37.729950 -122.211454 168 7ft 0kts
20-Apr-21 16:57 37.729950 -122.211454 168 7ft 0kts
20-Apr-21 16:58 37.729950 -122.211454 168 7ft 0kts
20-Apr-21 16:59 37.729950 -122.211454 168 7ft 0kts
20-Apr-21 17:00 37.729950 -122.211454 168 7ft 0kts
20-Apr-21 17:01 37.729342 -122.211622 218 8ft 9kts
20-Apr-21 17:02 37.726825 -122.207701 112 11ft 30kts
20-Apr-21 17:03 37.725618 -122.204523 182 9ft 0kts
20-Apr-21 17:04 37.725618 -122.204523 182 9ft 0kts
20-Apr-21 17:05 37.725618 -122.204523 182 9ft 0kts
20-Apr-21 17:06 37.725654 -122.207394 290 8ft 51kts
20-Apr-21 17:07 37.741384 -122.224195 347 895ft 101kts
20-Apr-21 17:08 37.773066 -122.224964 2 1795ft 117kts
20-Apr-21 17:09 37.793363 -122.198808 84 2821ft 109kts
20-Apr-21 17:10 37.782603 -122.162880 119 3628ft 117kts
20-Apr-21 17:11 37.763072 -122.129131 128 4301ft 121kts
20-Apr-21 17:12 37.743957 -122.094637 123 5074ft 121kts
20-Apr-21 17:13 37.722799 -122.059993 130 5542ft 139kts
20-Apr-21 17:14 37.696447 -122.019980 131 5534ft 151kts
20-Apr-21 17:15 37.669212 -121.979069 131 5534ft 152kts
20-Apr-21 17:16 37.641571 -121.937752 130 5412ft 156kts
20-Apr-21 17:17 37.615334 -121.898385 130 5561ft 144kts
20-Apr-21 17:18 37.589290 -121.858992 132 5718ft 144kts
20-Apr-21 17:19 37.563276 -121.820626 131 5997ft 139kts
20-Apr-21 17:20 37.538410 -121.783419 132 6354ft 137kts
20-Apr-21 17:21 37.513381 -121.746740 132 6749ft 137kts
20-Apr-21 17:22 37.488087 -121.710917 137 7091ft 137kts
20-Apr-21 17:23 37.460909 -121.677215 138 7484ft 132kts
20-Apr-21 17:24 37.434882 -121.644502 138 7755ft 130kts
20-Apr-21 17:25 37.407744 -121.613998 143 8121ft 130kts
20-Apr-21 17:26 37.379582 -121.584926 144 8338ft 130kts
20-Apr-21 17:27 37.351694 -121.556129 144 8677ft 129kts
20-Apr-21 17:28 37.324137 -121.527557 144 9002ft 128kts
20-Apr-21 17:29 37.296951 -121.498877 142 9319ft 125kts
20-Apr-21 17:30 37.269876 -121.469634 142 9478ft 134kts
20-Apr-21 17:31 37.240446 -121.438324 143 9513ft 140kts
20-Apr-21 17:32 37.210738 -121.406629 143 9530ft 141kts
20-Apr-21 17:33 37.180594 -121.374664 143 9540ft 142kts
20-Apr-21 17:34 37.148872 -121.344705 153 9540ft 142kts
20-Apr-21 17:35 37.116666 -121.315411 147 9538ft 143kts
20-Apr-21 17:36 37.084684 -121.286121 148 9505ft 138kts
20-Apr-21 17:37 37.053646 -121.256080 139 9525ft 142kts
20-Apr-21 17:38 37.025720 -121.220269 136 9543ft 145kts
20-Apr-21 17:39 36.998243 -121.183964 136 9528ft 143kts
20-Apr-21 17:40 36.970905 -121.147861 135 9516ft 140kts
20-Apr-21 17:41 36.944057 -121.112318 136 9533ft 140kts
20-Apr-21 17:42 36.916714 -121.076080 135 9558ft 145kts
20-Apr-21 17:43 36.889277 -121.039593 135 9538ft 143kts
20-Apr-21 17:44 36.862045 -121.003549 136 9555ft 141kts
20-Apr-21 17:45 36.835355 -120.968173 136 9567ft 140kts
20-Apr-21 17:46 36.808678 -120.932817 135 9579ft 140kts
20-Apr-21 17:47 36.781580 -120.897148 136 9572ft 140kts
20-Apr-21 17:48 36.754744 -120.861642 136 9577ft 141kts
20-Apr-21 17:49 36.727757 -120.825925 135 9582ft 142kts
20-Apr-21 17:50 36.695945 -120.801195 172 9574ft 136kts
20-Apr-21 17:51 36.658931 -120.792869 174 9671ft 133kts
20-Apr-21 17:52 36.622213 -120.784386 165 9691ft 137kts
20-Apr-21 17:53 36.589198 -120.759385 142 9691ft 141kts
20-Apr-21 17:54 36.559277 -120.727775 143 9691ft 141kts
20-Apr-21 17:55 36.529155 -120.696436 143 9708ft 143kts
20-Apr-21 17:56 36.498535 -120.664711 143 9687ft 143kts
20-Apr-21 17:57 36.467719 -120.632710 143 9683ft 144kts
20-Apr-21 17:58 36.437009 -120.600852 142 9668ft 142kts
20-Apr-21 17:59 36.406885 -120.569701 143 9661ft 139kts
20-Apr-21 18:00 36.376971 -120.538814 143 9694ft 141kts
20-Apr-21 18:01 36.346579 -120.507353 144 9671ft 141kts
20-Apr-21 18:02 36.316545 -120.476356 143 9668ft 139kts
20-Apr-21 18:03 36.286392 -120.445220 143 9680ft 142kts
20-Apr-21 18:04 36.256008 -120.414035 143 9669ft 141kts
20-Apr-21 18:05 36.225833 -120.382954 143 9675ft 141kts
20-Apr-21 18:06 36.195557 -120.351846 143 9676ft 142kts
20-Apr-21 18:07 36.165053 -120.320536 143 9675ft 142kts
20-Apr-21 18:08 36.134491 -120.289190 143 9674ft 142kts
20-Apr-21 18:09 36.103943 -120.257890 143 9674ft 143kts
20-Apr-21 18:10 36.073249 -120.226471 143 9675ft 143kts
20-Apr-21 18:11 36.042539 -120.195091 143 9675ft 143kts
20-Apr-21 18:12 36.011480 -120.163380 142 9591ft 146kts
20-Apr-21 18:13 35.980442 -120.131705 142 9572ft 144kts
20-Apr-21 18:14 35.949604 -120.100287 143 9571ft 143kts
20-Apr-21 18:15 35.918787 -120.068910 143 9571ft 143kts
20-Apr-21 18:16 35.887934 -120.037536 143 9572ft 144kts
20-Apr-21 18:17 35.856892 -120.005970 142 9561ft 144kts
20-Apr-21 18:18 35.825749 -119.974393 142 9555ft 144kts
20-Apr-21 18:19 35.794627 -119.942838 142 9559ft 145kts
20-Apr-21 18:20 35.763384 -119.911195 142 9552ft 144kts
20-Apr-21 18:21 35.732333 -119.879781 142 9553ft 144kts
20-Apr-21 18:22 35.701202 -119.848312 142 9554ft 145kts
20-Apr-21 18:23 35.669970 -119.816785 142 9553ft 145kts
20-Apr-21 18:24 35.638690 -119.785257 142 9553ft 145kts
20-Apr-21 18:25 35.607462 -119.753794 142 9554ft 145kts
20-Apr-21 18:26 35.576120 -119.722247 142 9554ft 145kts
20-Apr-21 18:28 35.544636 -119.690596 142 9554ft 146kts
20-Apr-21 18:29 35.513237 -119.659061 142 9555ft 146kts
20-Apr-21 18:30 35.481798 -119.627504 142 9555ft 146kts
20-Apr-21 18:31 35.450235 -119.595885 142 9556ft 146kts
20-Apr-21 18:32 35.418656 -119.564278 141 9557ft 146kts
20-Apr-21 18:33 35.387056 -119.532672 141 9556ft 146kts
20-Apr-21 18:34 35.355515 -119.501127 141 9558ft 146kts
20-Apr-21 18:35 35.323649 -119.469359 141 9560ft 147kts
20-Apr-21 18:36 35.291899 -119.437721 141 9559ft 147kts
20-Apr-21 18:37 35.260127 -119.406073 141 9555ft 147kts
20-Apr-21 18:38 35.229374 -119.375476 141 9677ft 143kts
20-Apr-21 18:39 35.198076 -119.344353 141 9692ft 146kts
20-Apr-21 18:40 35.166516 -119.313012 141 9692ft 146kts
20-Apr-21 18:41 35.134821 -119.281576 141 9693ft 146kts
20-Apr-21 18:42 35.105403 -119.247117 130 9691ft 146kts
20-Apr-21 18:43 35.079313 -119.208849 129 9692ft 146kts
20-Apr-21 18:44 35.053244 -119.170460 129 9692ft 146kts
20-Apr-21 18:45 35.027192 -119.132141 129 9692ft 146kts
20-Apr-21 18:46 35.001025 -119.093677 129 9709ft 148kts
20-Apr-21 18:46 34.979004 -119.061377 129 9705ft 149kts
20-Apr-21 18:48 34.948095 -119.016156 129 9691ft 148kts
20-Apr-21 18:49 34.921912 -118.978209 130 9688ft 146kts
20-Apr-21 18:50 34.890264 -118.946192 148 9703ft 149kts
20-Apr-21 18:51 34.855234 -118.919615 149 9599ft 147kts
20-Apr-21 18:51 34.826513 -118.898146 148 9581ft 144kts
20-Apr-21 18:52 34.792362 -118.872727 149 9594ft 144kts
20-Apr-21 18:54 34.751924 -118.843526 152 9594ft 144kts
20-Apr-21 18:55 34.716531 -118.820314 152 9592ft 144kts
20-Apr-21 18:55 34.687117 -118.800972 151 9603ft 145kts
20-Apr-21 18:56 34.651632 -118.777858 152 9593ft 144kts
20-Apr-21 18:58 34.609748 -118.751447 153 9538ft 145kts
20-Apr-21 18:59 34.571489 -118.735467 164 9561ft 146kts
20-Apr-21 18:59 34.539379 -118.723980 165 9522ft 142kts
20-Apr-21 19:01 34.495759 -118.704834 152 9514ft 144kts
20-Apr-21 19:01 34.466562 -118.684966 151 9499ft 144kts
20-Apr-21 19:02 34.432146 -118.661007 150 9485ft 142kts
20-Apr-21 19:03 34.397682 -118.636961 150 9496ft 143kts
20-Apr-21 19:04 34.363362 -118.612953 150 9500ft 145kts
20-Apr-21 19:05 34.329205 -118.589091 151 8936ft 146kts
20-Apr-21 19:06 34.295242 -118.565285 151 7611ft 137kts
20-Apr-21 19:07 34.263208 -118.542279 149 6177ft 130kts
20-Apr-21 19:08 34.233529 -118.517799 143 5567ft 127kts
20-Apr-21 19:09 34.207444 -118.500428 205 5573ft 99kts
20-Apr-21 19:10 34.192363 -118.524125 254 5587ft 86kts
20-Apr-21 19:11 34.182395 -118.555009 250 5619ft 122kts
20-Apr-21 19:12 34.158733 -118.578620 154 5605ft 141kts
20-Apr-21 19:13 34.125781 -118.552499 145 5603ft 142kts
20-Apr-21 19:14 34.093783 -118.524866 146 5606ft 141kts
20-Apr-21 19:15 34.059490 -118.501917 153 5631ft 141kts
20-Apr-21 19:16 34.023849 -118.482632 159 5630ft 141kts
20-Apr-21 19:17 33.987615 -118.464054 156 5630ft 142kts
20-Apr-21 19:18 33.954142 -118.445280 155 5626ft 143kts
20-Apr-21 19:19 33.925503 -118.424815 146 5619ft 142kts
20-Apr-21 19:20 33.893382 -118.396907 146 5577ft 145kts
20-Apr-21 19:21 33.861699 -118.367956 139 5533ft 142kts
20-Apr-21 19:22 33.833491 -118.338756 142 5667ft 136kts
20-Apr-21 19:23 33.803710 -118.308896 139 5659ft 144kts
20-Apr-21 19:24 33.774225 -118.276513 138 5568ft 142kts
20-Apr-21 19:25 33.747328 -118.242149 117 5541ft 142kts
20-Apr-21 19:26 33.733023 -118.203990 111 5465ft 143kts
20-Apr-21 19:27 33.719769 -118.166886 112 5466ft 141kts
20-Apr-21 19:28 33.704123 -118.124499 115 5396ft 140kts
20-Apr-21 19:29 33.685666 -118.079824 115 4492ft 156kts
20-Apr-21 19:30 33.667114 -118.033652 116 3204ft 152kts
20-Apr-21 19:31 33.664836 -117.992891 74 2606ft 135kts
20-Apr-21 19:32 33.674634 -117.951604 73 2545ft 128kts
20-Apr-21 19:33 33.682769 -117.908812 80 1818ft 132kts
20-Apr-21 19:34 33.674797 -117.870477 114 1698ft 122kts
20-Apr-21 19:35 33.686729 -117.845245 325 801ft 104kts
20-Apr-21 19:36 33.680391 -117.864076 205 50ft 56kts
20-Apr-21 19:37 33.677573 -117.867179 295 47ft 11kts
20-Apr-21 19:38 33.676948 -117.869539 206 45ft 13kts
20-Apr-21 19:39 33.673421 -117.871793 206 45ft 10kts
20-Apr-21 19:40 33.670149 -117.873848 208 45ft 12kts
20-Apr-21 19:41 33.670396 -117.875097 292 44ft 0kts
20-Apr-21 19:42 33.670396 -117.875097 292 44ft 0kts
20-Apr-21 19:43 33.670396 -117.875097 292 44ft 0kts
20-Apr-21 19:44 33.670396 -117.875097 292 44ft 0kts
20-Apr-21 19:45 33.670396 -117.875097 292 44ft 0kts
20-Apr-21 19:46 33.670396 -117.875097 292 44ft 0kts
20-Apr-21 19:47 33.670396 -117.875097 292 44ft 0kts
20-Apr-21 19:48 33.670396 -117.875097 292 44ft 0kts

Navigation Log

Ident Type
Flight plan parsing failed, navigation log unavailable